createdAt,value
2023-03-26T00:02:04.714Z,8.80
2023-03-26T00:04:33.807Z,8.80
2023-03-26T00:07:01.968Z,8.70
2023-03-26T00:09:31.469Z,8.80
2023-03-26T00:11:59.548Z,8.80
2023-03-26T00:14:29.197Z,8.80
2023-03-26T00:16:57.534Z,8.80
2023-03-26T00:19:25.632Z,8.70
2023-03-26T00:21:53.721Z,8.70
2023-03-26T00:24:21.874Z,8.70
2023-03-26T00:26:53.595Z,8.70
2023-03-26T00:29:23.070Z,8.70
2023-03-26T00:31:51.459Z,8.70
2023-03-26T00:34:19.611Z,8.70
2023-03-26T00:36:47.968Z,8.70
2023-03-26T00:39:17.857Z,8.70
2023-03-26T00:41:46.185Z,8.70
2023-03-26T00:44:15.596Z,8.70
2023-03-26T00:46:43.771Z,8.70
2023-03-26T00:49:14.875Z,8.70
2023-03-26T00:51:43.234Z,8.60
2023-03-26T00:54:11.893Z,8.60
2023-03-26T00:56:40.136Z,8.60
2023-03-26T00:59:09.251Z,8.70
2023-03-26T01:01:39.781Z,8.70
2023-03-26T01:04:30.605Z,8.70
2023-03-26T01:07:02.726Z,8.70
2023-03-26T01:09:35.777Z,8.70
2023-03-26T01:12:06.733Z,8.70
2023-03-26T01:14:34.940Z,8.70
2023-03-26T01:17:07.827Z,8.70
2023-03-26T01:19:44.722Z,8.80
2023-03-26T01:22:16.512Z,8.80
2023-03-26T01:24:52.796Z,8.70
2023-03-26T01:27:30.049Z,8.70
2023-03-26T01:30:06.131Z,8.80
2023-03-26T01:32:47.736Z,8.80
2023-03-26T01:35:28.628Z,8.80
2023-03-26T01:38:11.044Z,8.80
2023-03-26T01:40:46.882Z,8.90
2023-03-26T01:43:25.546Z,8.90
2023-03-26T01:45:54.862Z,8.90
2023-03-26T01:48:30.635Z,8.90
2023-03-26T01:50:58.863Z,8.90
2023-03-26T01:53:27.818Z,8.90
2023-03-26T01:56:05.097Z,8.90
2023-03-26T01:58:39.178Z,8.90
2023-03-26T02:01:24.449Z,8.90
2023-03-26T02:03:59.847Z,8.90
2023-03-26T02:06:34.370Z,8.90
2023-03-26T02:09:05.761Z,8.80
2023-03-26T02:11:36.576Z,8.80
2023-03-26T02:14:05.335Z,8.70
2023-03-26T02:16:33.471Z,8.70
2023-03-26T02:19:01.808Z,8.70
2023-03-26T02:21:34.040Z,8.70
2023-03-26T02:24:04.081Z,8.70
2023-03-26T02:26:34.220Z,8.70
2023-03-26T02:29:03.784Z,8.70
2023-03-26T02:31:31.934Z,8.70
2023-03-26T02:34:00.380Z,8.70
2023-03-26T02:36:28.701Z,8.70
2023-03-26T02:38:58.124Z,8.70
2023-03-26T02:41:26.430Z,8.70
2023-03-26T02:43:54.555Z,8.80
2023-03-26T02:46:24.030Z,8.70
2023-03-26T02:48:52.179Z,8.80
2023-03-26T02:51:20.286Z,8.70
2023-03-26T02:53:48.512Z,8.70
2023-03-26T02:56:16.581Z,8.80
2023-03-26T02:58:44.622Z,8.80
2023-03-26T03:01:13.132Z,8.80
2023-03-26T03:03:42.674Z,8.80
2023-03-26T03:06:10.874Z,8.80
2023-03-26T03:08:38.921Z,8.80
2023-03-26T03:11:10.920Z,8.80
2023-03-26T03:13:39.145Z,8.80
2023-03-26T03:16:07.880Z,8.80
2023-03-26T03:18:36.429Z,8.80
2023-03-26T03:21:07.174Z,8.80
2023-03-26T03:23:35.615Z,8.80
2023-03-26T03:26:03.777Z,8.80
2023-03-26T03:28:31.875Z,8.80
2023-03-26T03:30:59.993Z,8.80
2023-03-26T03:33:28.846Z,8.80
2023-03-26T03:35:57.172Z,8.80
2023-03-26T03:38:26.908Z,8.80
2023-03-26T03:40:55.506Z,8.80
2023-03-26T03:43:23.739Z,8.80
2023-03-26T03:45:52.285Z,8.90
2023-03-26T03:48:20.546Z,8.90
2023-03-26T03:50:48.632Z,8.90
2023-03-26T03:53:18.576Z,8.90
2023-03-26T03:55:53.255Z,8.80
2023-03-26T03:58:22.747Z,8.90
2023-03-26T04:00:51.134Z,8.80
2023-03-26T04:03:33.405Z,8.80
2023-03-26T04:06:02.626Z,8.80
2023-03-26T04:08:30.764Z,8.80
2023-03-26T04:11:00.383Z,8.80
2023-03-26T04:13:28.697Z,8.80
2023-03-26T04:15:57.396Z,8.80
2023-03-26T04:18:26.369Z,8.80
2023-03-26T04:20:55.825Z,8.80
2023-03-26T04:23:24.463Z,8.80
2023-03-26T04:25:55.195Z,8.90
2023-03-26T04:28:30.461Z,8.80
2023-03-26T04:31:02.063Z,8.80
2023-03-26T04:33:32.393Z,8.70
2023-03-26T04:36:03.071Z,8.70
2023-03-26T04:38:35.605Z,8.70
2023-03-26T04:41:07.583Z,8.70
2023-03-26T04:43:37.110Z,8.60
2023-03-26T04:46:05.329Z,8.60
2023-03-26T04:48:33.648Z,8.60
2023-03-26T04:51:02.059Z,8.60
2023-03-26T04:53:30.172Z,8.60
2023-03-26T04:56:02.455Z,8.50
2023-03-26T04:58:33.052Z,8.50
2023-03-26T05:01:10.498Z,8.50
2023-03-26T05:03:39.233Z,8.50
2023-03-26T05:06:08.038Z,8.50
2023-03-26T05:08:36.242Z,8.40
2023-03-26T05:11:07.429Z,8.40
2023-03-26T05:13:35.566Z,8.40
2023-03-26T05:16:05.551Z,8.40
2023-03-26T05:18:33.928Z,8.40
2023-03-26T05:21:02.233Z,8.40
2023-03-26T05:23:30.543Z,8.40
2023-03-26T05:25:58.650Z,8.40
2023-03-26T05:28:28.260Z,8.40
2023-03-26T05:30:56.779Z,8.40
2023-03-26T05:33:26.855Z,8.40
2023-03-26T05:36:02.896Z,8.40
2023-03-26T05:38:31.821Z,8.30
2023-03-26T05:41:00.668Z,8.30
2023-03-26T05:43:29.125Z,8.30
2023-03-26T05:45:57.302Z,8.20
2023-03-26T05:48:27.490Z,8.20
2023-03-26T05:50:57.457Z,8.20
2023-03-26T05:53:27.661Z,8.10
2023-03-26T05:55:57.993Z,8.10
2023-03-26T05:58:27.200Z,8.10
2023-03-26T06:01:00.035Z,8.10
2023-03-26T06:03:29.909Z,8.10
2023-03-26T06:05:58.145Z,8.10
2023-03-26T06:08:26.872Z,8.20
2023-03-26T06:11:00.296Z,8.20
2023-03-26T06:13:28.691Z,8.20
2023-03-26T06:15:57.893Z,8.10
2023-03-26T06:18:26.683Z,8.10
2023-03-26T06:20:56.436Z,8.10
2023-03-26T06:23:24.736Z,8.10
2023-03-26T06:25:52.964Z,8.10
2023-03-26T06:28:21.174Z,8.10
2023-03-26T06:30:50.177Z,8.20
2023-03-26T06:33:18.531Z,8.20
2023-03-26T06:35:47.594Z,8.10
2023-03-26T06:38:18.139Z,8.20
2023-03-26T06:40:46.935Z,8.20
2023-03-26T06:43:15.862Z,8.20
2023-03-26T06:45:45.381Z,8.20
2023-03-26T06:48:14.263Z,8.20
2023-03-26T06:50:43.511Z,8.20
2023-03-26T06:53:13.418Z,8.20
2023-03-26T06:55:43.040Z,8.30
2023-03-26T06:58:12.686Z,8.30
2023-03-26T07:00:40.893Z,8.30
2023-03-26T07:03:11.348Z,8.40
2023-03-26T07:05:39.840Z,8.40
2023-03-26T07:08:08.015Z,8.40
2023-03-26T07:10:36.194Z,8.40
2023-03-26T07:13:05.798Z,8.50
2023-03-26T07:15:34.042Z,8.50
2023-03-26T07:18:02.155Z,8.50
2023-03-26T07:20:30.956Z,8.50
2023-03-26T07:22:59.666Z,8.50
2023-03-26T07:25:28.438Z,8.50
2023-03-26T07:28:06.661Z,8.50
2023-03-26T07:30:47.577Z,8.50
2023-03-26T07:33:22.355Z,8.60
2023-03-26T07:35:57.859Z,8.70
2023-03-26T07:38:42.118Z,8.70
2023-03-26T07:41:17.075Z,8.70
2023-03-26T07:43:59.189Z,8.70
2023-03-26T07:46:34.047Z,8.70
2023-03-26T07:49:04.627Z,8.80
2023-03-26T07:51:33.376Z,8.90
2023-03-26T07:54:04.259Z,8.90
2023-03-26T07:56:38.116Z,8.90
2023-03-26T07:59:21.390Z,8.90
2023-03-26T08:02:05.831Z,9.00
2023-03-26T08:04:47.900Z,9.00
2023-03-26T08:07:22.457Z,9.00
2023-03-26T08:10:03.017Z,9.00
2023-03-26T08:12:40.818Z,9.10
2023-03-26T08:15:16.799Z,9.10
2023-03-26T08:17:53.371Z,9.10
2023-03-26T08:20:32.082Z,9.10
2023-03-26T08:23:09.371Z,9.10
2023-03-26T08:25:49.839Z,9.10
2023-03-26T08:28:30.197Z,9.10
2023-03-26T08:30:58.777Z,9.10
2023-03-26T08:33:29.304Z,8.90
2023-03-26T08:35:57.885Z,8.90
2023-03-26T08:38:26.305Z,8.90
2023-03-26T08:41:39.176Z,9.00
2023-03-26T08:44:55.967Z,8.80
2023-03-26T08:47:47.715Z,8.90
2023-03-26T08:50:38.122Z,8.90
2023-03-26T08:53:45.076Z,8.90
2023-03-26T08:56:20.664Z,8.90
2023-03-26T08:59:13.659Z,8.80
2023-03-26T09:02:25.057Z,8.80
2023-03-26T09:05:22.395Z,8.80
2023-03-26T09:08:24.081Z,8.70
2023-03-26T09:11:17.896Z,8.70
2023-03-26T09:14:27.350Z,8.70
2023-03-26T09:17:38.125Z,8.70
2023-03-26T09:20:43.012Z,8.70
2023-03-26T09:23:26.037Z,8.70
2023-03-26T09:26:17.095Z,8.80
2023-03-26T09:29:18.252Z,8.80
2023-03-26T09:32:10.789Z,8.80
2023-03-26T09:35:03.526Z,8.70
2023-03-26T09:37:57.296Z,8.80
2023-03-26T09:40:38.236Z,8.90
2023-03-26T09:43:38.882Z,8.90
2023-03-26T09:46:23.706Z,8.90
2023-03-26T09:49:26.228Z,8.90
2023-03-26T09:52:15.837Z,9.00
2023-03-26T09:54:53.738Z,9.00
2023-03-26T09:57:36.623Z,9.00
2023-03-26T10:00:29.654Z,9.00
2023-03-26T10:03:26.413Z,9.00
2023-03-26T10:06:04.435Z,9.00
2023-03-26T10:08:41.308Z,9.00
2023-03-26T10:11:19.693Z,9.00
2023-03-26T10:14:06.353Z,9.10
2023-03-26T10:16:45.992Z,9.10
2023-03-26T10:19:37.739Z,9.20
2023-03-26T10:22:20.532Z,9.00
2023-03-26T10:25:13.600Z,9.20
2023-03-26T10:27:55.526Z,9.20
2023-03-26T10:30:54.213Z,9.30
2023-03-26T10:33:31.922Z,9.20
2023-03-26T10:36:26.797Z,9.10
2023-03-26T10:39:36.371Z,9.10
2023-03-26T10:42:21.776Z,9.30
2023-03-26T10:45:06.389Z,9.40
2023-03-26T10:47:50.915Z,9.30
2023-03-26T10:50:36.476Z,9.20
2023-03-26T10:53:05.715Z,9.30
2023-03-26T10:55:38.317Z,9.40
2023-03-26T10:58:14.282Z,9.20
2023-03-26T11:00:48.017Z,9.20
2023-03-26T11:03:52.209Z,9.20
2023-03-26T11:06:31.825Z,9.30
2023-03-26T11:09:10.029Z,9.30
2023-03-26T11:11:46.156Z,9.40
2023-03-26T11:14:33.749Z,9.30
2023-03-26T11:17:15.285Z,9.20
2023-03-26T11:20:06.264Z,9.10
2023-03-26T11:22:45.050Z,9.20
2023-03-26T11:25:33.920Z,9.20
2023-03-26T11:28:12.988Z,9.10
2023-03-26T11:30:49.502Z,9.20
2023-03-26T11:33:23.847Z,9.30
2023-03-26T11:35:57.833Z,9.20
2023-03-26T11:38:32.881Z,9.20
2023-03-26T11:41:03.419Z,9.10
2023-03-26T11:43:36.551Z,9.00
2023-03-26T11:46:09.327Z,9.10
2023-03-26T11:48:41.887Z,9.10
2023-03-26T11:51:19.281Z,8.90
2023-03-26T11:53:47.617Z,8.80
2023-03-26T11:56:23.627Z,8.90
2023-03-26T11:58:55.590Z,9.00
2023-03-26T12:01:30.358Z,9.00
2023-03-26T12:04:04.111Z,9.00
2023-03-26T12:06:34.524Z,9.00
2023-03-26T12:09:03.939Z,9.00
2023-03-26T12:11:35.475Z,9.00
2023-03-26T12:14:06.034Z,9.00
2023-03-26T12:16:36.046Z,9.00
2023-03-26T12:19:07.357Z,9.00
2023-03-26T12:21:47.825Z,9.10
2023-03-26T12:24:31.885Z,9.10
2023-03-26T12:27:02.210Z,9.10
2023-03-26T12:29:34.115Z,9.00
2023-03-26T12:32:08.290Z,9.00
2023-03-26T12:34:39.518Z,9.10
2023-03-26T12:37:32.423Z,9.20
2023-03-26T12:40:14.303Z,9.30
2023-03-26T12:44:44.405Z,9.20
2023-03-26T12:45:34.546Z,9.10
2023-03-26T12:48:04.921Z,9.10
2023-03-26T12:50:48.289Z,9.20
2023-03-26T12:53:39.814Z,9.00
2023-03-26T12:56:19.828Z,9.00
2023-03-26T12:59:11.826Z,9.10
2023-03-26T13:01:53.660Z,9.20
2023-03-26T13:05:06.036Z,9.20
2023-03-26T13:07:50.855Z,9.30
2023-03-26T13:10:38.997Z,9.20
2023-03-26T13:13:25.641Z,9.40
2023-03-26T13:15:55.238Z,9.50
2023-03-26T13:18:35.645Z,9.60
2023-03-26T13:21:11.631Z,9.70
2023-03-26T13:23:49.382Z,9.60
2023-03-26T13:26:31.396Z,9.70
2023-03-26T13:29:06.909Z,9.70
2023-03-26T13:31:41.899Z,9.80
2023-03-26T13:34:19.553Z,9.90
2023-03-26T13:37:01.203Z,10.00
2023-03-26T13:39:34.923Z,9.90
2023-03-26T13:42:22.248Z,9.90
2023-03-26T13:45:04.607Z,9.90
2023-03-26T13:47:39.180Z,10.10
2023-03-26T13:50:16.502Z,10.10
2023-03-26T13:52:51.616Z,10.10
2023-03-26T13:55:29.373Z,10.00
2023-03-26T13:58:04.937Z,9.90
2023-03-26T14:00:48.029Z,9.90
2023-03-26T14:03:22.737Z,10.00
2023-03-26T14:05:54.394Z,9.90
2023-03-26T14:08:27.331Z,9.90
2023-03-26T14:11:02.206Z,10.00
2023-03-26T14:13:37.192Z,10.10
2023-03-26T14:16:13.695Z,10.10
2023-03-26T14:18:48.019Z,10.30
2023-03-26T14:21:41.420Z,10.30
2023-03-26T14:24:52.042Z,10.40
2023-03-26T14:27:39.275Z,10.40
2023-03-26T14:30:49.250Z,10.30
2023-03-26T14:33:48.805Z,10.50
2023-03-26T14:36:31.394Z,10.40
2023-03-26T14:39:13.933Z,10.30
2023-03-26T14:41:48.998Z,10.30
2023-03-26T14:45:01.458Z,10.30
2023-03-26T14:47:32.160Z,10.10
2023-03-26T14:50:35.950Z,10.10
2023-03-26T14:53:13.126Z,10.10
2023-03-26T14:56:04.203Z,10.10
2023-03-26T14:58:59.521Z,10.00
2023-03-26T15:01:28.836Z,10.00
2023-03-26T15:04:29.433Z,9.90
2023-03-26T15:07:33.606Z,9.80
2023-03-26T15:10:38.504Z,9.90
2023-03-26T15:13:24.501Z,9.90
2023-03-26T15:16:12.675Z,9.90
2023-03-26T15:19:23.373Z,9.90
2023-03-26T15:22:26.025Z,9.90
2023-03-26T15:25:36.438Z,9.90
2023-03-26T15:28:42.828Z,9.70
2023-03-26T15:31:31.044Z,9.60
2023-03-26T15:34:44.070Z,9.60
2023-03-26T15:37:49.206Z,9.70
2023-03-26T15:40:36.238Z,9.60
2023-03-26T15:43:11.557Z,9.60
2023-03-26T15:45:42.798Z,9.60
2023-03-26T15:48:35.434Z,9.50
2023-03-26T15:51:17.422Z,9.50
2023-03-26T15:53:54.637Z,9.60
2023-03-26T15:56:35.299Z,9.50
2023-03-26T15:59:16.269Z,9.60
2023-03-26T16:02:02.463Z,9.60
2023-03-26T16:04:50.394Z,9.50
2023-03-26T16:07:50.378Z,9.40
2023-03-26T16:10:35.779Z,9.30
2023-03-26T16:13:31.862Z,9.30
2023-03-26T16:16:23.803Z,9.40
2023-03-26T16:18:59.596Z,9.30
2023-03-26T16:21:42.906Z,9.30
2023-03-26T16:24:23.393Z,9.20
2023-03-26T16:27:23.619Z,9.20
2023-03-26T16:30:15.367Z,9.20
2023-03-26T16:32:46.680Z,9.10
2023-03-26T16:35:41.596Z,9.10
2023-03-26T16:38:16.150Z,9.00
2023-03-26T16:41:02.518Z,9.00
2023-03-26T16:44:06.425Z,8.90
2023-03-26T16:46:44.655Z,8.80
2023-03-26T16:49:28.249Z,8.70
2023-03-26T16:52:16.094Z,8.70
2023-03-26T16:54:51.473Z,8.70
2023-03-26T16:57:28.087Z,8.70
2023-03-26T17:00:27.488Z,8.60
2023-03-26T17:03:03.715Z,8.60
2023-03-26T17:05:37.784Z,8.60
2023-03-26T17:08:17.863Z,8.60
2023-03-26T17:11:10.204Z,8.60
2023-03-26T17:13:48.468Z,8.50
2023-03-26T17:16:23.656Z,8.50
2023-03-26T17:19:00.619Z,8.40
2023-03-26T17:21:45.833Z,8.40
2023-03-26T17:24:27.179Z,8.30
2023-03-26T17:27:02.116Z,8.40
2023-03-26T17:29:42.821Z,8.20
2023-03-26T17:32:15.082Z,8.20
2023-03-26T17:35:03.778Z,8.10
2023-03-26T17:37:47.833Z,8.00
2023-03-26T17:40:50.994Z,8.00
2023-03-26T17:43:44.843Z,7.90
2023-03-26T17:46:28.755Z,7.90
2023-03-26T17:49:04.432Z,7.90
2023-03-26T17:51:41.025Z,7.80
2023-03-26T17:54:19.369Z,7.80
2023-03-26T17:56:48.833Z,7.80
2023-03-26T17:59:23.344Z,7.80
2023-03-26T18:01:55.771Z,7.70
2023-03-26T18:04:32.270Z,7.70
2023-03-26T18:07:31.032Z,7.60
2023-03-26T18:10:24.533Z,7.60
2023-03-26T18:13:12.140Z,7.60
2023-03-26T18:15:51.569Z,7.60
2023-03-26T18:18:23.388Z,7.60
2023-03-26T18:20:54.612Z,7.50
2023-03-26T18:23:27.224Z,7.50
2023-03-26T18:25:58.953Z,7.50
2023-03-26T18:28:32.046Z,7.40
2023-03-26T18:31:10.240Z,7.40
2023-03-26T18:33:45.787Z,7.30
2023-03-26T18:36:18.548Z,7.20
2023-03-26T18:38:48.991Z,7.10
2023-03-26T18:41:32.240Z,7.10
2023-03-26T18:44:03.035Z,7.00
2023-03-26T18:46:32.672Z,7.10
2023-03-26T18:49:03.083Z,7.10
2023-03-26T18:51:38.338Z,7.10
2023-03-26T18:54:17.700Z,7.10
2023-03-26T18:56:49.029Z,7.10
2023-03-26T18:59:30.817Z,7.10
2023-03-26T19:01:59.870Z,7.10
2023-03-26T19:04:31.482Z,7.10
2023-03-26T19:07:01.601Z,7.10
2023-03-26T19:09:32.389Z,7.10
2023-03-26T19:12:07.043Z,7.10
2023-03-26T19:14:37.023Z,7.10
2023-03-26T19:17:07.922Z,7.10
2023-03-26T19:19:38.626Z,7.10
2023-03-26T19:22:10.569Z,7.10
2023-03-26T19:24:39.410Z,7.00
2023-03-26T19:27:07.954Z,6.90
2023-03-26T19:29:37.262Z,6.80
2023-03-26T19:32:07.434Z,6.70
2023-03-26T19:34:39.305Z,6.70
2023-03-26T19:37:21.362Z,6.60
2023-03-26T19:39:51.753Z,6.50
2023-03-26T19:42:23.298Z,6.50
2023-03-26T19:44:52.568Z,6.50
2023-03-26T19:47:31.936Z,6.50
2023-03-26T19:50:25.499Z,6.50
2023-03-26T19:53:16.869Z,6.50
2023-03-26T19:55:55.648Z,6.50
2023-03-26T19:58:24.027Z,6.40
2023-03-26T20:00:52.194Z,6.40
2023-03-26T20:03:26.665Z,6.30
2023-03-26T20:05:55.025Z,6.20
2023-03-26T20:08:27.104Z,6.20
2023-03-26T20:10:56.974Z,6.10
2023-03-26T20:13:25.447Z,6.10
2023-03-26T20:16:05.388Z,6.00
2023-03-26T20:18:34.534Z,5.90
2023-03-26T20:21:03.053Z,5.90
2023-03-26T20:23:32.690Z,5.90
2023-03-26T20:26:00.979Z,5.90
2023-03-26T20:28:30.379Z,5.80
2023-03-26T20:30:58.838Z,5.80
2023-03-26T20:33:28.015Z,5.90
2023-03-26T20:35:57.752Z,5.80
2023-03-26T20:38:38.969Z,5.90
2023-03-26T20:41:13.025Z,5.90
2023-03-26T20:43:41.256Z,5.90
2023-03-26T20:46:14.748Z,5.90
2023-03-26T20:48:43.010Z,5.80
2023-03-26T20:51:12.606Z,5.80
2023-03-26T20:53:41.636Z,5.80
2023-03-26T20:56:15.524Z,5.80
2023-03-26T20:58:44.097Z,5.80
2023-03-26T21:01:13.554Z,5.80
2023-03-26T21:03:42.636Z,5.70
2023-03-26T21:06:14.293Z,5.70
2023-03-26T21:08:44.133Z,5.70
2023-03-26T21:11:26.564Z,5.70
2023-03-26T21:14:02.090Z,5.60
2023-03-26T21:16:30.760Z,5.60
2023-03-26T21:18:59.544Z,5.50
2023-03-26T21:21:40.699Z,5.50
2023-03-26T21:24:14.539Z,5.50
2023-03-26T21:26:50.722Z,5.40
2023-03-26T21:29:19.385Z,5.40
2023-03-26T21:31:48.185Z,5.30
2023-03-26T21:34:17.128Z,5.30
2023-03-26T21:36:46.603Z,5.30
2023-03-26T21:39:16.496Z,5.20
2023-03-26T21:41:48.480Z,5.20
2023-03-26T21:44:34.246Z,5.20
2023-03-26T21:47:02.927Z,5.10
2023-03-26T21:49:31.632Z,5.10
2023-03-26T21:52:00.310Z,5.00
2023-03-26T21:54:30.819Z,5.00
2023-03-26T21:57:30.604Z,4.90
2023-03-26T22:00:14.800Z,4.80
2023-03-26T22:03:00.136Z,4.70
2023-03-26T22:05:36.693Z,4.70
2023-03-26T22:08:07.059Z,4.60
2023-03-26T22:10:35.535Z,4.60
2023-03-26T22:13:05.053Z,4.60
2023-03-26T22:15:33.831Z,4.60
2023-03-26T22:18:02.848Z,4.50
2023-03-26T22:20:31.081Z,4.50
2023-03-26T22:23:00.562Z,4.50
2023-03-26T22:25:28.753Z,4.50
2023-03-26T22:27:57.624Z,4.70
2023-03-26T22:30:27.380Z,4.70
2023-03-26T22:32:56.968Z,4.80
2023-03-26T22:35:26.131Z,4.80
2023-03-26T22:38:00.964Z,4.90
2023-03-26T22:40:29.703Z,4.90
2023-03-26T22:42:57.907Z,5.00
2023-03-26T22:45:27.989Z,5.00
2023-03-26T22:48:03.569Z,5.00
2023-03-26T22:50:33.094Z,5.10
2023-03-26T22:53:01.705Z,5.00
2023-03-26T22:55:30.201Z,5.00
2023-03-26T22:57:58.557Z,5.00
2023-03-26T23:00:28.171Z,5.00
2023-03-26T23:03:00.232Z,5.00
2023-03-26T23:05:29.400Z,4.90
2023-03-26T23:07:58.233Z,4.90
2023-03-26T23:10:26.464Z,4.90
2023-03-26T23:12:54.709Z,4.80
2023-03-26T23:15:22.894Z,4.80
2023-03-26T23:17:54.168Z,4.70
2023-03-26T23:20:23.272Z,4.60
2023-03-26T23:22:52.527Z,4.60
2023-03-26T23:25:21.091Z,4.50
2023-03-26T23:27:50.639Z,4.50
2023-03-26T23:30:19.297Z,4.40
2023-03-26T23:32:47.575Z,4.40
2023-03-26T23:35:17.392Z,4.30
2023-03-26T23:37:45.697Z,4.30
2023-03-26T23:40:14.389Z,4.20
2023-03-26T23:42:42.808Z,4.30
2023-03-26T23:45:12.362Z,4.30
2023-03-26T23:47:42.249Z,4.30
2023-03-26T23:50:13.077Z,4.30
2023-03-26T23:52:45.828Z,4.30
2023-03-26T23:55:14.040Z,4.20
2023-03-26T23:57:43.190Z,4.20
